Amanda, Ohio
Current Conditions -  °F | °C
As of 1:53 AM on Wednesday 26 Nov 2014 (Local Time) from KLHQ Reporting Station
Clear Clear  
Wind Chill: 23°   Ceiling: Unl
Heat Index: 28°   Visibility: 7mi
Dew Point: 25°   Wind: 5mph
Humidity: 88%   Direction: 350°N
Pressure: 30.16"   Gusts: NA
Location:  39.65°N, 82.74°W
Report Text: KLHQ 260653Z AUTO 35004KT 7SM CLR M02/M04 A3016 RMK AO2 SLP220 T10221039
Loading
Personal Weather Stations






























Interactive Weather Map New forecast layout! Learn more

10-Day Weather Forecast

Advertisements
Track Severe Weather on mobile